createdAt,value
2018-12-31T00:02:34.053Z,5
2018-12-31T00:07:36.521Z,6
2018-12-31T00:12:39.067Z,8
2018-12-31T00:17:41.497Z,8
2018-12-31T00:22:43.905Z,10
2018-12-31T00:27:46.373Z,5
2018-12-31T00:32:48.845Z,7
2018-12-31T00:37:51.276Z,12
2018-12-31T00:42:58.951Z,14
2018-12-31T00:47:56.428Z,15
2018-12-31T00:52:58.662Z,18
2018-12-31T00:58:01.131Z,20
2018-12-31T01:03:03.584Z,14
2018-12-31T01:08:06.066Z,18
2018-12-31T01:13:08.576Z,21
2018-12-31T01:18:10.966Z,15
2018-12-31T01:23:13.439Z,22
2018-12-31T01:28:15.909Z,17
2018-12-31T01:33:18.374Z,22
2018-12-31T01:38:20.814Z,18
2018-12-31T01:43:23.258Z,19
2018-12-31T01:48:25.717Z,15
2018-12-31T01:53:28.177Z,22
2018-12-31T01:58:30.721Z,15
2018-12-31T02:03:33.110Z,17
2018-12-31T02:08:35.572Z,18
2018-12-31T02:13:38.021Z,19
2018-12-31T02:18:40.510Z,14
2018-12-31T02:23:42.936Z,15
2018-12-31T02:28:45.419Z,15
2018-12-31T02:33:47.848Z,15
2018-12-31T02:38:50.317Z,16
2018-12-31T02:43:52.766Z,15
2018-12-31T02:48:55.209Z,15
2018-12-31T02:53:58.077Z,17
2018-12-31T02:59:00.143Z,21
2018-12-31T03:04:02.580Z,18
2018-12-31T03:09:05.102Z,15
2018-12-31T03:14:07.539Z,22
2018-12-31T03:19:09.953Z,21
2018-12-31T03:24:12.421Z,17
2018-12-31T03:29:14.888Z,17
2018-12-31T03:34:17.411Z,17
2018-12-31T03:39:19.807Z,18
2018-12-31T03:44:22.267Z,15
2018-12-31T03:49:24.790Z,16
2018-12-31T03:54:27.200Z,17
2018-12-31T03:59:29.701Z,21
2018-12-31T04:04:32.089Z,18
2018-12-31T04:09:35.051Z,16
2018-12-31T04:14:37.303Z,20
2018-12-31T04:24:41.924Z,21
2018-12-31T04:29:44.371Z,18
2018-12-31T04:39:49.281Z,15
2018-12-31T04:44:51.757Z,15
2018-12-31T04:49:54.213Z,15
2018-12-31T04:54:56.651Z,14
2018-12-31T04:59:59.186Z,15
2018-12-31T05:05:01.627Z,16
2018-12-31T05:10:04.083Z,15
2018-12-31T05:15:06.547Z,18
2018-12-31T05:20:08.948Z,15
2018-12-31T05:25:11.428Z,20
2018-12-31T05:30:13.984Z,14
2018-12-31T05:35:16.469Z,17
2018-12-31T05:40:18.785Z,21
2018-12-31T05:45:21.283Z,17
2018-12-31T05:50:23.712Z,16
2018-12-31T05:55:26.202Z,15
2018-12-31T06:00:28.654Z,16
2018-12-31T06:05:31.142Z,13
2018-12-31T06:10:33.553Z,14
2018-12-31T06:15:36.016Z,14
2018-12-31T06:20:38.475Z,17
2018-12-31T06:25:40.929Z,14
2018-12-31T06:30:43.375Z,14
2018-12-31T06:35:45.830Z,12
2018-12-31T06:40:48.283Z,12
2018-12-31T06:45:50.744Z,10
2018-12-31T06:50:53.200Z,11
2018-12-31T06:55:55.651Z,9
2018-12-31T07:00:58.126Z,11
2018-12-31T07:06:00.563Z,14
2018-12-31T07:11:03.037Z,12
2018-12-31T07:16:05.499Z,17
2018-12-31T07:21:07.981Z,15
2018-12-31T07:26:10.396Z,18
2018-12-31T07:31:12.885Z,16
2018-12-31T07:36:15.317Z,17
2018-12-31T07:41:17.773Z,19
2018-12-31T07:46:20.247Z,20
2018-12-31T07:51:22.697Z,19
2018-12-31T07:56:25.160Z,14
2018-12-31T08:01:27.604Z,20
2018-12-31T08:06:30.337Z,15
2018-12-31T08:11:32.583Z,21
2018-12-31T08:16:35.306Z,19
2018-12-31T08:21:37.472Z,16
2018-12-31T08:26:39.895Z,22
2018-12-31T08:31:42.363Z,16
2018-12-31T08:36:44.816Z,17
2018-12-31T08:41:47.300Z,15
2018-12-31T08:46:49.826Z,14
2018-12-31T08:51:52.175Z,15
2018-12-31T08:56:54.627Z,15
2018-12-31T09:01:57.097Z,14
2018-12-31T09:06:59.546Z,14
2018-12-31T09:12:02.013Z,16
2018-12-31T09:17:04.490Z,13
2018-12-31T09:22:06.928Z,13
2018-12-31T09:27:09.446Z,15
2018-12-31T09:32:11.843Z,11
2018-12-31T09:37:14.306Z,14
2018-12-31T09:42:16.745Z,14
2018-12-31T09:47:19.212Z,11
2018-12-31T09:52:21.668Z,15
2018-12-31T09:57:24.161Z,11
2018-12-31T10:02:26.590Z,13
2018-12-31T10:07:29.115Z,12
2018-12-31T10:12:31.491Z,13
2018-12-31T10:17:33.975Z,15
2018-12-31T10:22:36.412Z,13
2018-12-31T10:27:38.878Z,11
2018-12-31T10:32:41.352Z,13
2018-12-31T10:37:43.779Z,15
2018-12-31T10:42:46.339Z,12
2018-12-31T10:47:48.721Z,14
2018-12-31T10:52:51.172Z,15
2018-12-31T10:57:53.634Z,16
2018-12-31T11:02:56.069Z,18
2018-12-31T11:07:58.652Z,12
2018-12-31T11:13:00.977Z,13
2018-12-31T11:18:03.458Z,15
2018-12-31T11:23:05.911Z,17
2018-12-31T11:28:08.369Z,16
2018-12-31T11:33:10.922Z,15
2018-12-31T11:38:13.279Z,16
2018-12-31T11:43:15.719Z,16
2018-12-31T11:48:18.295Z,14
2018-12-31T11:53:20.688Z,14
2018-12-31T11:58:23.098Z,15
2018-12-31T12:03:25.571Z,14
2018-12-31T12:08:28.010Z,15
2018-12-31T12:13:30.473Z,11
2018-12-31T12:18:32.937Z,13
2018-12-31T12:23:35.390Z,11
2018-12-31T12:28:37.840Z,16
2018-12-31T12:33:40.309Z,12
2018-12-31T12:38:42.761Z,14
2018-12-31T12:43:45.264Z,13
2018-12-31T12:48:47.701Z,12
2018-12-31T12:53:50.153Z,9
2018-12-31T12:58:52.618Z,8
2018-12-31T13:03:55.055Z,9
2018-12-31T13:08:57.547Z,10
2018-12-31T13:13:59.961Z,14
2018-12-31T13:19:02.533Z,10
2018-12-31T13:24:04.889Z,8
2018-12-31T13:29:07.402Z,10
2018-12-31T13:34:09.788Z,14
2018-12-31T13:39:12.252Z,10
2018-12-31T13:44:14.714Z,12
2018-12-31T13:49:17.275Z,11
2018-12-31T13:54:19.626Z,11
2018-12-31T13:59:22.093Z,10
2018-12-31T14:04:24.547Z,12
2018-12-31T14:09:26.996Z,11
2018-12-31T14:14:29.440Z,14
2018-12-31T14:19:31.924Z,13
2018-12-31T14:24:34.389Z,16
2018-12-31T14:29:36.832Z,14
2018-12-31T14:34:39.280Z,14
2018-12-31T14:39:41.730Z,13
2018-12-31T14:44:44.187Z,10
2018-12-31T14:49:46.698Z,11
2018-12-31T14:54:49.114Z,12
2018-12-31T14:59:51.557Z,10
2018-12-31T15:04:54.025Z,11
2018-12-31T15:09:56.488Z,12
2018-12-31T15:14:59.484Z,12
2018-12-31T15:20:01.454Z,13
2018-12-31T15:25:03.890Z,14
2018-12-31T15:30:06.309Z,13
2018-12-31T15:35:08.773Z,15
2018-12-31T15:45:13.729Z,12
2018-12-31T15:50:16.152Z,12
2018-12-31T15:55:18.602Z,14
2018-12-31T16:00:21.154Z,19
2018-12-31T16:05:23.513Z,21
2018-12-31T16:10:25.974Z,15
2018-12-31T16:15:28.436Z,12
2018-12-31T16:20:30.875Z,13
2018-12-31T16:25:33.341Z,12
2018-12-31T16:30:35.789Z,10
2018-12-31T16:35:38.250Z,8
2018-12-31T16:40:40.812Z,9
2018-12-31T16:45:43.170Z,11
2018-12-31T16:50:45.621Z,10
2018-12-31T16:55:48.069Z,8
2018-12-31T17:00:50.565Z,9
2018-12-31T17:05:53.146Z,9
2018-12-31T17:10:55.447Z,11
2018-12-31T17:15:57.915Z,11
2018-12-31T17:21:00.374Z,13
2018-12-31T17:26:02.817Z,16
2018-12-31T17:31:05.269Z,17
2018-12-31T17:36:07.731Z,18
2018-12-31T17:41:10.205Z,18
2018-12-31T17:46:12.660Z,16
2018-12-31T17:51:15.360Z,15
2018-12-31T17:56:17.581Z,15
2018-12-31T18:01:20.026Z,18
2018-12-31T18:06:22.490Z,12
2018-12-31T18:11:24.929Z,16
2018-12-31T18:16:27.415Z,8
2018-12-31T18:21:29.880Z,10
2018-12-31T18:26:32.342Z,10
2018-12-31T18:31:34.783Z,15
2018-12-31T18:36:37.232Z,18
2018-12-31T18:41:39.714Z,10
2018-12-31T18:46:42.167Z,11
2018-12-31T18:51:44.608Z,12
2018-12-31T18:56:47.047Z,11
2018-12-31T19:01:49.510Z,30
2018-12-31T19:06:52.048Z,13
2018-12-31T19:11:54.432Z,14
2018-12-31T19:16:56.881Z,12
2018-12-31T19:21:59.330Z,10
2018-12-31T19:27:01.804Z,12
2018-12-31T19:32:04.250Z,12
2018-12-31T19:37:06.724Z,13
2018-12-31T19:42:09.175Z,11
2018-12-31T19:47:11.624Z,11
2018-12-31T19:52:14.155Z,11
2018-12-31T19:57:16.543Z,8
2018-12-31T20:02:19.000Z,10
2018-12-31T20:07:21.483Z,21
2018-12-31T20:12:23.907Z,14
2018-12-31T20:17:26.452Z,16
2018-12-31T20:22:28.816Z,16
2018-12-31T20:27:31.342Z,13
2018-12-31T20:32:33.732Z,17
2018-12-31T20:37:36.260Z,16
2018-12-31T20:42:38.657Z,17
2018-12-31T20:47:41.115Z,16
2018-12-31T20:52:43.568Z,18
2018-12-31T20:57:46.021Z,22
2018-12-31T21:02:48.478Z,25
2018-12-31T21:07:50.990Z,18
2018-12-31T21:12:53.431Z,16
2018-12-31T21:17:55.850Z,15
2018-12-31T21:28:00.804Z,12
2018-12-31T21:33:03.341Z,12
2018-12-31T21:38:05.683Z,10
2018-12-31T21:43:08.145Z,9
2018-12-31T21:48:10.605Z,8
2018-12-31T21:53:13.057Z,9
2018-12-31T21:58:15.585Z,9
2018-12-31T22:03:17.974Z,11
2018-12-31T22:08:20.427Z,12
2018-12-31T22:13:22.879Z,11
2018-12-31T22:18:25.341Z,11
2018-12-31T22:23:27.803Z,11
2018-12-31T22:28:30.277Z,10
2018-12-31T22:33:32.724Z,12
2018-12-31T22:38:35.173Z,13
2018-12-31T22:43:37.714Z,15
2018-12-31T22:48:40.128Z,15
2018-12-31T22:53:42.568Z,15
2018-12-31T22:58:44.997Z,14
2018-12-31T23:03:47.528Z,19
2018-12-31T23:08:49.945Z,25
2018-12-31T23:13:52.373Z,48
2018-12-31T23:18:54.826Z,20
2018-12-31T23:23:57.319Z,40
2018-12-31T23:28:59.750Z,97
2018-12-31T23:34:02.190Z,96
2018-12-31T23:39:05.264Z,70
2018-12-31T23:44:07.408Z,62
2018-12-31T23:49:09.570Z,51
2018-12-31T23:54:12.033Z,33
2018-12-31T23:59:14.568Z,29
